createdAt,value
2023-01-11T00:02:25.153Z,99963.81
2023-01-11T00:05:26.905Z,99958.53
2023-01-11T00:08:28.655Z,99972.25
2023-01-11T00:11:30.159Z,99964.31
2023-01-11T00:14:31.665Z,99964.44
2023-01-11T00:17:33.135Z,99951.09
2023-01-11T00:20:34.819Z,99934.81
2023-01-11T00:23:37.711Z,99943.28
2023-01-11T00:26:39.227Z,99928.88
2023-01-11T00:29:40.726Z,99929.91
2023-01-11T00:32:42.505Z,99929.91
2023-01-11T00:35:44.030Z,99921.09
2023-01-11T00:38:51.544Z,99922.97
2023-01-11T00:42:11.583Z,99918.72
2023-01-11T00:45:31.509Z,99924.16
2023-01-11T00:48:32.957Z,99916.16
2023-01-11T00:51:34.430Z,99915.31
2023-01-11T00:54:40.662Z,99911.78
2023-01-11T00:57:42.149Z,99920.91
2023-01-11T01:00:43.644Z,99921.94
2023-01-11T01:03:45.116Z,99914.66
2023-01-11T01:06:46.667Z,99906.50
2023-01-11T01:09:48.136Z,99917.53
2023-01-11T01:13:08.520Z,99925.81
2023-01-11T01:16:10.113Z,99925.81
2023-01-11T01:19:12.200Z,99916.84
2023-01-11T01:22:13.709Z,99917.00
2023-01-11T01:25:15.996Z,99916.00
2023-01-11T01:28:18.768Z,99916.00
2023-01-11T01:31:20.309Z,99900.75
2023-01-11T01:34:21.883Z,99906.38
2023-01-11T01:37:23.369Z,99893.66
2023-01-11T01:40:24.861Z,99897.53
2023-01-11T01:43:56.657Z,99887.41
2023-01-11T01:46:58.152Z,99895.69
2023-01-11T01:50:04.447Z,99890.25
2023-01-11T01:53:16.961Z,99899.41
2023-01-11T01:56:25.900Z,99888.72
2023-01-11T01:59:30.122Z,99902.28
2023-01-11T02:02:31.846Z,99891.59
2023-01-11T02:05:33.403Z,99879.91
2023-01-11T02:08:40.841Z,99880.94
2023-01-11T02:11:43.648Z,99869.28
2023-01-11T02:14:47.329Z,99843.03
2023-01-11T02:17:48.873Z,99836.09
2023-01-11T02:21:09.444Z,99852.16
2023-01-11T02:24:35.058Z,99840.66
2023-01-11T02:28:07.642Z,99834.38
2023-01-11T02:31:27.965Z,99824.56
2023-01-11T02:34:55.526Z,99817.63
2023-01-11T02:38:08.407Z,99806.63
2023-01-11T02:41:25.041Z,99807.63
2023-01-11T02:45:02.568Z,99799.50
2023-01-11T02:48:22.974Z,99787.13
2023-01-11T02:51:39.655Z,99796.09
2023-01-11T02:54:53.884Z,99791.72
2023-01-11T02:57:57.586Z,99797.28
2023-01-11T03:01:00.102Z,99787.50
2023-01-11T03:04:01.702Z,99786.66
2023-01-11T03:07:36.909Z,99785.63
2023-01-11T03:10:48.386Z,99774.78
2023-01-11T03:14:04.655Z,99778.88
2023-01-11T03:17:15.340Z,99754.31
2023-01-11T03:20:31.355Z,99722.84
2023-01-11T03:24:00.452Z,99743.66
2023-01-11T03:27:38.289Z,99731.97
2023-01-11T03:30:59.615Z,99747.38
2023-01-11T03:34:20.063Z,99739.44
2023-01-11T03:37:31.308Z,99729.59
2023-01-11T03:40:37.298Z,99741.47
2023-01-11T03:43:43.945Z,99737.72
2023-01-11T03:46:53.780Z,99736.88
2023-01-11T03:50:07.087Z,99723.34
2023-01-11T03:53:10.297Z,99699.13
2023-01-11T03:56:15.312Z,99699.13
2023-01-11T03:59:16.906Z,99698.28
2023-01-11T04:02:25.318Z,99690.00
2023-01-11T04:05:26.816Z,99691.00
2023-01-11T04:08:28.414Z,99698.13
2023-01-11T04:11:29.913Z,99691.69
2023-01-11T04:14:31.467Z,99686.09
2023-01-11T04:17:32.953Z,99695.91
2023-01-11T04:20:36.735Z,99703.69
2023-01-11T04:23:38.350Z,99686.44
2023-01-11T04:26:40.318Z,99698.78
2023-01-11T04:29:41.766Z,99714.00
2023-01-11T04:32:43.333Z,99715.53
2023-01-11T04:35:44.931Z,99711.16
2023-01-11T04:38:46.442Z,99712.81
2023-01-11T04:42:06.542Z,99705.53
2023-01-11T04:45:08.490Z,99705.38
2023-01-11T04:48:09.960Z,99707.94
2023-01-11T04:51:11.458Z,99717.72
2023-01-11T04:54:12.932Z,99707.72
2023-01-11T04:57:16.605Z,99711.97
2023-01-11T05:00:18.430Z,99706.53
2023-01-11T05:03:19.889Z,99684.88
2023-01-11T05:06:24.457Z,99688.41
2023-01-11T05:09:26.019Z,99690.97
2023-01-11T05:12:27.499Z,99684.72
2023-01-11T05:15:29.004Z,99676.59
2023-01-11T05:18:30.516Z,99674.72
2023-01-11T05:21:35.005Z,99669.28
2023-01-11T05:24:36.471Z,99689.28
2023-01-11T05:27:38.044Z,99667.63
2023-01-11T05:30:39.544Z,99664.03
2023-01-11T05:33:41.036Z,99659.66
2023-01-11T05:36:43.122Z,99676.75
2023-01-11T05:39:44.592Z,99674.22
2023-01-11T05:42:46.899Z,99675.22
2023-01-11T05:45:48.441Z,99681.69
2023-01-11T05:48:50.213Z,99675.41
2023-01-11T05:51:51.985Z,99681.84
2023-01-11T05:54:53.501Z,99674.56
2023-01-11T05:57:55.002Z,99665.59
2023-01-11T06:00:56.745Z,99663.72
2023-01-11T06:03:58.403Z,99678.13
2023-01-11T06:06:59.977Z,99685.22
2023-01-11T06:10:01.471Z,99688.78
2023-01-11T06:13:21.582Z,99689.63
2023-01-11T06:16:23.649Z,99683.19
2023-01-11T06:19:25.582Z,99688.41
2023-01-11T06:22:27.091Z,99673.69
2023-01-11T06:25:30.242Z,99680.63
2023-01-11T06:28:31.729Z,99671.50
2023-01-11T06:31:33.224Z,99687.41
2023-01-11T06:34:34.817Z,99681.81
2023-01-11T06:37:36.311Z,99679.09
2023-01-11T06:40:39.768Z,99688.06
2023-01-11T06:43:41.984Z,99689.94
2023-01-11T06:46:43.725Z,99683.50
2023-01-11T06:49:45.198Z,99696.88
2023-01-11T06:52:58.439Z,99686.88
2023-01-11T06:56:00.071Z,99679.94
2023-01-11T06:59:01.695Z,99679.94
2023-01-11T07:02:03.303Z,99671.81
2023-01-11T07:05:05.161Z,99674.53
2023-01-11T07:08:06.728Z,99676.56
2023-01-11T07:11:08.664Z,99687.41
2023-01-11T07:14:12.038Z,99666.75
2023-01-11T07:17:13.508Z,99670.47
2023-01-11T07:20:15.370Z,99685.88
2023-01-11T07:23:16.826Z,99674.19
2023-01-11T07:26:18.318Z,99671.66
2023-01-11T07:29:19.947Z,99673.53
2023-01-11T07:32:21.467Z,99682.69
2023-01-11T07:35:22.966Z,99662.84
2023-01-11T07:38:24.451Z,99670.13
2023-01-11T07:41:44.330Z,99673.03
2023-01-11T07:44:46.567Z,99679.47
2023-01-11T07:47:52.059Z,99681.16
2023-01-11T07:50:54.368Z,99675.91
2023-01-11T07:53:56.018Z,99681.69
2023-01-11T07:56:57.655Z,99679.97
2023-01-11T07:59:59.134Z,99680.16
2023-01-11T08:03:01.305Z,99686.56
2023-01-11T08:06:02.849Z,99681.34
2023-01-11T08:09:04.820Z,99675.09
2023-01-11T08:12:32.458Z,99679.84
2023-01-11T08:15:42.159Z,99674.41
2023-01-11T08:18:43.730Z,99680.00
2023-01-11T08:21:45.322Z,99689.16
2023-01-11T08:24:46.873Z,99703.88
2023-01-11T08:27:49.614Z,99710.13
2023-01-11T08:30:51.109Z,99704.03
2023-01-11T08:33:52.908Z,99701.31
2023-01-11T08:36:57.356Z,99709.44
2023-01-11T08:39:58.933Z,99714.88
2023-01-11T08:43:00.593Z,99710.47
2023-01-11T08:46:02.274Z,99709.66
2023-01-11T08:49:04.271Z,99716.91
2023-01-11T08:52:06.484Z,99715.22
2023-01-11T08:55:08.286Z,99719.94
2023-01-11T08:58:10.069Z,99720.97
2023-01-11T09:01:12.384Z,99724.69
2023-01-11T09:04:24.330Z,99724.69
2023-01-11T09:07:26.870Z,99720.97
2023-01-11T09:10:29.748Z,99734.69
2023-01-11T09:13:31.570Z,99741.13
2023-01-11T09:16:33.121Z,99747.38
2023-01-11T09:19:34.803Z,99745.69
2023-01-11T09:22:36.289Z,99752.94
2023-01-11T09:25:37.808Z,99770.06
2023-01-11T09:28:39.445Z,99769.19
2023-01-11T09:31:41.265Z,99758.38
2023-01-11T09:34:46.682Z,99763.97
2023-01-11T09:37:49.617Z,99742.31
2023-01-11T09:41:01.622Z,99733.34
2023-01-11T09:44:16.018Z,99747.72
2023-01-11T09:47:27.538Z,99739.59
2023-01-11T09:50:32.973Z,99772.25
2023-01-11T09:53:38.078Z,99762.44
2023-01-11T09:57:13.092Z,99763.28
2023-01-11T10:00:26.404Z,99767.66
2023-01-11T10:03:45.316Z,99775.16
2023-01-11T10:07:14.378Z,99777.84
2023-01-11T10:18:30.328Z,99781.56
2023-01-11T10:21:58.108Z,99778.16
2023-01-11T10:25:17.001Z,99747.53
2023-01-11T10:28:46.920Z,99732.13
2023-01-11T10:32:10.092Z,99743.16
2023-01-11T10:35:43.872Z,99746.69
2023-01-11T10:39:17.484Z,99750.25
2023-01-11T10:42:25.278Z,99735.88
2023-01-11T10:45:37.434Z,99732.31
2023-01-11T10:48:43.847Z,99746.69
2023-01-11T10:51:49.034Z,99745.88
2023-01-11T10:54:54.879Z,99739.56
2023-01-11T10:58:14.399Z,99744.84
2023-01-11T11:01:36.541Z,99742.97
2023-01-11T11:04:56.485Z,99748.22
2023-01-11T11:08:05.823Z,99756.19
2023-01-11T11:11:26.973Z,99763.97
2023-01-11T11:14:41.497Z,99766.50
2023-01-11T11:17:49.893Z,99758.38
2023-01-11T11:20:51.538Z,99751.94
2023-01-11T11:23:58.548Z,99752.44
2023-01-11T11:27:08.169Z,99762.28
2023-01-11T11:30:12.406Z,99761.25
2023-01-11T11:33:35.091Z,99751.25
2023-01-11T11:36:48.752Z,99753.81
2023-01-11T11:39:51.711Z,99761.75
2023-01-11T11:43:09.352Z,99757.19
2023-01-11T11:46:18.760Z,99754.50
2023-01-11T11:49:20.719Z,99754.50
2023-01-11T11:52:22.312Z,99753.47
2023-01-11T11:55:28.549Z,99764.78
2023-01-11T11:58:30.846Z,99767.69
2023-01-11T12:01:40.821Z,99781.91
2023-01-11T12:04:48.319Z,99787.50
2023-01-11T12:07:55.831Z,99794.59
2023-01-11T12:11:06.461Z,99789.16
2023-01-11T12:14:10.692Z,99783.94
2023-01-11T12:17:25.753Z,99793.06
2023-01-11T12:20:34.343Z,99787.84
2023-01-11T12:23:35.802Z,99786.31
2023-01-11T12:26:42.604Z,99787.16
2023-01-11T12:30:10.077Z,99786.31
2023-01-11T12:33:11.985Z,99776.66
2023-01-11T12:36:54.876Z,99774.78
2023-01-11T12:40:18.495Z,99782.06
2023-01-11T12:43:29.082Z,99780.38
2023-01-11T12:46:42.965Z,99794.94
2023-01-11T12:49:55.681Z,99801.19
2023-01-11T12:53:24.741Z,99798.47
2023-01-11T12:56:57.202Z,99804.94
2023-01-11T13:00:12.702Z,99808.97
2023-01-11T13:03:21.618Z,99809.81
2023-01-11T13:06:53.604Z,99811.69
2023-01-11T13:10:24.487Z,99818.13
2023-01-11T13:13:55.703Z,99818.13
2023-01-11T13:17:18.088Z,99810.16
2023-01-11T13:20:22.825Z,99813.38
2023-01-11T13:23:33.067Z,99817.56
2023-01-11T13:26:47.315Z,99816.03
2023-01-11T13:29:59.210Z,99820.41
2023-01-11T13:33:18.289Z,99820.06
2023-01-11T13:36:26.291Z,99825.34
2023-01-11T13:39:51.710Z,99822.28
2023-01-11T13:42:57.795Z,99819.44
2023-01-11T13:46:14.327Z,99837.19
2023-01-11T13:49:43.762Z,99828.06
2023-01-11T13:52:57.381Z,99838.75
2023-01-11T13:56:06.284Z,99854.84
2023-01-11T13:59:22.312Z,99862.78
2023-01-11T14:02:48.646Z,99874.16
2023-01-11T14:06:19.132Z,99881.09
2023-01-11T14:09:20.554Z,99881.25
2023-01-11T14:12:40.290Z,99900.03
2023-01-11T14:15:58.231Z,99903.59
2023-01-11T14:19:05.639Z,99909.34
2023-01-11T14:22:21.246Z,99915.59
2023-01-11T14:25:26.259Z,99919.16
2023-01-11T14:28:44.492Z,99917.47
2023-01-11T14:31:55.179Z,99933.72
2023-01-11T14:34:56.644Z,99941.16
2023-01-11T14:38:16.643Z,99952.13
2023-01-11T14:41:49.140Z,99942.16
2023-01-11T14:45:13.655Z,99954.00
2023-01-11T14:48:24.348Z,99958.56
2023-01-11T14:51:33.694Z,99958.72
2023-01-11T14:54:45.009Z,99968.72
2023-01-11T14:57:55.648Z,99966.16
2023-01-11T15:00:57.089Z,99973.56
2023-01-11T15:03:58.735Z,99968.13
2023-01-11T15:07:01.254Z,99965.63
2023-01-11T15:10:28.781Z,99978.97
2023-01-11T15:13:36.202Z,99968.31
2023-01-11T15:16:57.523Z,99973.88
2023-01-11T15:20:07.366Z,99976.59
2023-01-11T15:23:17.255Z,99980.31
2023-01-11T15:26:20.026Z,99976.78
2023-01-11T15:29:26.572Z,99981.31
2023-01-11T15:32:29.618Z,99984.22
2023-01-11T15:35:33.565Z,99983.38
2023-01-11T15:39:16.624Z,99987.75
2023-01-11T15:42:38.483Z,99999.44
2023-01-11T15:46:17.410Z,100010.44
2023-01-11T15:49:40.969Z,100009.28
2023-01-11T15:53:03.586Z,100014.50
2023-01-11T15:56:08.200Z,100022.63
2023-01-11T15:59:27.504Z,100009.63
2023-01-11T16:03:07.561Z,100009.47
2023-01-11T16:06:24.262Z,100002.19
2023-01-11T16:09:59.025Z,100019.00
2023-01-11T16:13:00.482Z,100026.09
2023-01-11T16:16:11.167Z,100027.47
2023-01-11T16:19:22.108Z,100028.16
2023-01-11T16:22:26.315Z,100022.56
2023-01-11T16:25:36.635Z,100018.53
2023-01-11T16:28:41.417Z,100025.63
2023-01-11T16:32:04.477Z,100030.41
2023-01-11T16:35:18.022Z,100037.38
2023-01-11T16:38:23.508Z,100042.44
2023-01-11T16:41:28.949Z,100023.47
2023-01-11T16:44:36.642Z,100033.16
2023-01-11T16:47:38.202Z,100041.97
2023-01-11T16:50:43.899Z,100041.78
2023-01-11T16:53:55.082Z,100046.03
2023-01-11T16:56:59.356Z,100038.75
2023-01-11T17:00:04.526Z,100045.03
2023-01-11T17:03:19.624Z,100059.41
2023-01-11T17:06:23.553Z,100054.84
2023-01-11T17:09:25.914Z,100053.16
2023-01-11T17:12:27.517Z,100058.56
2023-01-11T17:15:48.116Z,100057.53
2023-01-11T17:18:49.857Z,100062.97
2023-01-11T17:22:00.109Z,100067.06
2023-01-11T17:25:14.799Z,100070.59
2023-01-11T17:28:19.710Z,100062.47
2023-01-11T17:31:26.653Z,100071.44
2023-01-11T17:34:36.508Z,100065.88
2023-01-11T17:37:38.069Z,100069.59
2023-01-11T17:40:40.576Z,100068.75
2023-01-11T17:44:01.037Z,100072.28
2023-01-11T17:47:04.863Z,100075.88
2023-01-11T17:50:17.455Z,100071.31
2023-01-11T17:53:26.525Z,100077.41
2023-01-11T17:56:41.476Z,100070.97
2023-01-11T17:59:42.965Z,100066.56
2023-01-11T18:02:46.285Z,100066.38
2023-01-11T18:05:47.770Z,100072.66
2023-01-11T18:08:53.446Z,100070.81
2023-01-11T18:12:07.841Z,100080.63
2023-01-11T18:15:23.963Z,100082.66
2023-01-11T18:18:38.924Z,100070.63
2023-01-11T18:21:53.182Z,100076.88
2023-01-11T18:24:56.574Z,100080.47
2023-01-11T18:28:25.916Z,100077.44
2023-01-11T18:31:27.432Z,100087.44
2023-01-11T18:34:29.300Z,100088.09
2023-01-11T18:37:30.970Z,100081.81
2023-01-11T18:40:33.292Z,100079.13
2023-01-11T18:43:36.897Z,100079.97
2023-01-11T18:46:38.373Z,100083.69
2023-01-11T18:49:39.926Z,100087.25
2023-01-11T18:52:41.517Z,100086.25
2023-01-11T18:55:44.323Z,100089.81
2023-01-11T18:58:45.829Z,100081.50
2023-01-11T19:01:59.030Z,100085.06
2023-01-11T19:05:09.934Z,100079.47
2023-01-11T19:08:11.429Z,100086.75
2023-01-11T19:11:14.850Z,100075.91
2023-01-11T19:14:16.307Z,100078.63
2023-01-11T19:17:17.882Z,100068.81
2023-01-11T19:20:19.345Z,100070.66
2023-01-11T19:23:20.843Z,100077.09
2023-01-11T19:26:22.412Z,100069.81
2023-01-11T19:29:24.769Z,100079.81
2023-01-11T19:32:26.340Z,100073.34
2023-01-11T19:35:27.797Z,100070.81
2023-01-11T19:38:29.344Z,100070.81
2023-01-11T19:41:50.815Z,100071.81
2023-01-11T19:44:52.380Z,100066.41
2023-01-11T19:47:53.868Z,100057.44
2023-01-11T19:51:11.078Z,100060.84
2023-01-11T19:54:14.592Z,100053.72
2023-01-11T19:57:20.066Z,100052.69
2023-01-11T20:00:21.654Z,100054.56
2023-01-11T20:03:23.607Z,100060.84
2023-01-11T20:06:25.703Z,100066.25
2023-01-11T20:09:27.259Z,100074.53
2023-01-11T20:12:28.761Z,100079.81
2023-01-11T20:15:30.284Z,100066.25
2023-01-11T20:18:32.064Z,100076.25
2023-01-11T20:21:34.240Z,100065.41
2023-01-11T20:24:35.727Z,100051.03
2023-01-11T20:27:37.197Z,100057.28
2023-01-11T20:30:41.848Z,100050.00
2023-01-11T20:33:44.361Z,100043.72
2023-01-11T20:36:46.072Z,100040.19
2023-01-11T20:39:48.181Z,100034.75
2023-01-11T20:42:49.693Z,100025.75
2023-01-11T20:45:56.320Z,100031.03
2023-01-11T20:48:57.799Z,100015.78
2023-01-11T20:51:59.256Z,100026.63
2023-01-11T20:55:00.754Z,100032.88
2023-01-11T20:58:02.234Z,100034.75
2023-01-11T21:01:08.410Z,100029.34
2023-01-11T21:04:11.254Z,100008.50
2023-01-11T21:07:12.801Z,100015.78
2023-01-11T21:10:14.372Z,100012.06
2023-01-11T21:13:15.803Z,100009.50
2023-01-11T21:16:17.382Z,100000.38
2023-01-11T21:19:18.890Z,100001.38
2023-01-11T21:22:20.415Z,99995.94
2023-01-11T21:25:21.913Z,99986.81
2023-01-11T21:28:23.517Z,99975.97
2023-01-11T21:31:26.835Z,99980.22
2023-01-11T21:34:28.410Z,99988.16
2023-01-11T21:37:30.355Z,99977.16
2023-01-11T21:40:33.994Z,99985.97
2023-01-11T21:43:36.500Z,99982.25
2023-01-11T21:46:38.585Z,99986.66
2023-01-11T21:49:40.852Z,99979.38
2023-01-11T21:52:42.358Z,99976.66
2023-01-11T21:55:43.849Z,99971.25
2023-01-11T21:58:46.125Z,99973.97
2023-01-11T22:01:49.149Z,99969.53
2023-01-11T22:04:56.281Z,99960.56
2023-01-11T22:07:57.945Z,99943.47
2023-01-11T22:11:01.633Z,99938.03
2023-01-11T22:14:04.767Z,99936.34
2023-01-11T22:17:06.232Z,99942.97
2023-01-11T22:20:08.638Z,99945.66
2023-01-11T22:23:10.286Z,99939.56
2023-01-11T22:26:17.714Z,99944.78
2023-01-11T22:29:19.954Z,99934.16
2023-01-11T22:32:21.421Z,99922.63
2023-01-11T22:35:22.903Z,99934.28
2023-01-11T22:38:24.342Z,99946.16
2023-01-11T22:41:26.164Z,99931.94
2023-01-11T22:44:27.656Z,99937.34
2023-01-11T22:47:29.118Z,99931.09
2023-01-11T22:50:30.683Z,99923.31
2023-01-11T22:53:43.378Z,99919.41
2023-01-11T22:56:44.913Z,99918.88
2023-01-11T22:59:46.541Z,99922.63
2023-01-11T23:02:48.047Z,99928.03
2023-01-11T23:05:49.567Z,99938.03
2023-01-11T23:08:51.149Z,99923.81
2023-01-11T23:12:11.123Z,99917.53
2023-01-11T23:15:12.721Z,99911.25
2023-01-11T23:18:14.485Z,99916.66
2023-01-11T23:21:16.876Z,99929.38
2023-01-11T23:24:18.528Z,99936.81
2023-01-11T23:27:20.124Z,99925.13
2023-01-11T23:30:21.702Z,99930.56
2023-01-11T23:33:23.182Z,99924.31
2023-01-11T23:36:31.495Z,99924.31
2023-01-11T23:39:33.027Z,99916.50
2023-01-11T23:42:35.436Z,99912.09
2023-01-11T23:45:37.075Z,99907.53
2023-01-11T23:48:38.559Z,99891.44
2023-01-11T23:51:40.512Z,99887.91
2023-01-11T23:54:43.317Z,99886.19
2023-01-11T23:58:04.773Z,99890.75
